sensor_id;sensor_type;location;lat;lon;timestamp;temperature;humidity
4651;DHT22;2338;49.602;8.722;2022-08-11T00:01:05;18.90;41.30
4651;DHT22;2338;49.602;8.722;2022-08-11T00:03:54;18.80;42.10
4651;DHT22;2338;49.602;8.722;2022-08-11T00:06:41;18.80;42.40
4651;DHT22;2338;49.602;8.722;2022-08-11T00:09:35;18.80;42.30
4651;DHT22;2338;49.602;8.722;2022-08-11T00:12:22;18.80;43.10
4651;DHT22;2338;49.602;8.722;2022-08-11T00:15:09;18.90;42.90
4651;DHT22;2338;49.602;8.722;2022-08-11T00:17:56;18.80;42.30
4651;DHT22;2338;49.602;8.722;2022-08-11T00:20:43;18.90;42.60
4651;DHT22;2338;49.602;8.722;2022-08-11T00:23:29;18.90;42.80
4651;DHT22;2338;49.602;8.722;2022-08-11T00:26:17;18.90;42.30
4651;DHT22;2338;49.602;8.722;2022-08-11T00:29:08;18.90;42.10
4651;DHT22;2338;49.602;8.722;2022-08-11T00:31:56;18.80;43.00
4651;DHT22;2338;49.602;8.722;2022-08-11T00:34:44;18.80;43.30
4651;DHT22;2338;49.602;8.722;2022-08-11T00:37:31;18.80;42.30
4651;DHT22;2338;49.602;8.722;2022-08-11T00:40:22;18.80;42.30
4651;DHT22;2338;49.602;8.722;2022-08-11T00:43:19;18.90;42.50
4651;DHT22;2338;49.602;8.722;2022-08-11T00:46:17;18.90;42.50
4651;DHT22;2338;49.602;8.722;2022-08-11T00:49:12;18.60;42.30
4651;DHT22;2338;49.602;8.722;2022-08-11T00:52:12;18.50;43.30
4651;DHT22;2338;49.602;8.722;2022-08-11T00:59:09;18.60;43.40
4651;DHT22;2338;49.602;8.722;2022-08-11T01:02:17;18.60;43.80
4651;DHT22;2338;49.602;8.722;2022-08-11T01:05:21;18.30;45.20
4651;DHT22;2338;49.602;8.722;2022-08-11T01:11:58;18.10;46.10
4651;DHT22;2338;49.602;8.722;2022-08-11T01:18:54;18.20;46.80
4651;DHT22;2338;49.602;8.722;2022-08-11T01:25:47;18.30;47.00
4651;DHT22;2338;49.602;8.722;2022-08-11T01:35:46;18.40;46.20
4651;DHT22;2338;49.602;8.722;2022-08-11T01:39:06;18.40;46.10
4651;DHT22;2338;49.602;8.722;2022-08-11T01:42:29;18.20;47.40
4651;DHT22;2338;49.602;8.722;2022-08-11T01:45:43;18.30;47.80
4651;DHT22;2338;49.602;8.722;2022-08-11T01:48:40;18.10;48.20
4651;DHT22;2338;49.602;8.722;2022-08-11T01:51:36;18.00;49.20
4651;DHT22;2338;49.602;8.722;2022-08-11T01:54:32;17.90;49.00
4651;DHT22;2338;49.602;8.722;2022-08-11T01:57:31;18.00;49.50
4651;DHT22;2338;49.602;8.722;2022-08-11T02:00:20;18.10;50.80
4651;DHT22;2338;49.602;8.722;2022-08-11T02:03:13;18.10;49.80
4651;DHT22;2338;49.602;8.722;2022-08-11T02:06:08;18.00;50.00
4651;DHT22;2338;49.602;8.722;2022-08-11T02:09:17;17.90;49.10
4651;DHT22;2338;49.602;8.722;2022-08-11T02:12:14;17.80;49.10
4651;DHT22;2338;49.602;8.722;2022-08-11T02:15:13;17.90;50.60
4651;DHT22;2338;49.602;8.722;2022-08-11T02:18:04;17.70;50.90
4651;DHT22;2338;49.602;8.722;2022-08-11T02:20:55;17.70;50.90
4651;DHT22;2338;49.602;8.722;2022-08-11T02:24:18;17.80;49.60
4651;DHT22;2338;49.602;8.722;2022-08-11T02:27:14;17.70;50.90
4651;DHT22;2338;49.602;8.722;2022-08-11T02:30:03;17.50;51.80
4651;DHT22;2338;49.602;8.722;2022-08-11T02:32:57;17.60;52.00
4651;DHT22;2338;49.602;8.722;2022-08-11T02:36:06;17.60;52.10
4651;DHT22;2338;49.602;8.722;2022-08-11T02:39:01;17.60;53.00
4651;DHT22;2338;49.602;8.722;2022-08-11T02:41:55;17.60;51.80
4651;DHT22;2338;49.602;8.722;2022-08-11T02:45:15;17.70;51.10
4651;DHT22;2338;49.602;8.722;2022-08-11T02:48:07;17.70;51.60
4651;DHT22;2338;49.602;8.722;2022-08-11T02:51:19;17.60;51.40
4651;DHT22;2338;49.602;8.722;2022-08-11T02:54:16;17.60;52.40
4651;DHT22;2338;49.602;8.722;2022-08-11T02:57:15;17.70;52.10
4651;DHT22;2338;49.602;8.722;2022-08-11T03:00:06;17.60;52.80
4651;DHT22;2338;49.602;8.722;2022-08-11T03:03:01;17.70;52.20
4651;DHT22;2338;49.602;8.722;2022-08-11T03:06:04;17.60;52.80
4651;DHT22;2338;49.602;8.722;2022-08-11T03:08:55;17.50;53.10
4651;DHT22;2338;49.602;8.722;2022-08-11T03:11:51;17.60;52.40
4651;DHT22;2338;49.602;8.722;2022-08-11T03:15:02;17.50;53.80
4651;DHT22;2338;49.602;8.722;2022-08-11T03:18:16;17.40;53.90
4651;DHT22;2338;49.602;8.722;2022-08-11T03:21:08;17.40;54.20
4651;DHT22;2338;49.602;8.722;2022-08-11T03:24:02;17.40;53.70
4651;DHT22;2338;49.602;8.722;2022-08-11T03:26:57;17.30;54.50
4651;DHT22;2338;49.602;8.722;2022-08-11T03:30:02;17.30;54.00
4651;DHT22;2338;49.602;8.722;2022-08-11T03:33:22;17.20;55.20
4651;DHT22;2338;49.602;8.722;2022-08-11T03:40:02;17.10;56.30
4651;DHT22;2338;49.602;8.722;2022-08-11T03:42:54;17.20;55.70
4651;DHT22;2338;49.602;8.722;2022-08-11T03:45:54;17.20;55.80
4651;DHT22;2338;49.602;8.722;2022-08-11T03:48:52;17.10;56.10
4651;DHT22;2338;49.602;8.722;2022-08-11T03:51:52;17.10;56.30
4651;DHT22;2338;49.602;8.722;2022-08-11T03:54:50;17.00;56.50
4651;DHT22;2338;49.602;8.722;2022-08-11T04:07:50;17.00;57.30
4651;DHT22;2338;49.602;8.722;2022-08-11T04:14:24;16.90;58.10
4651;DHT22;2338;49.602;8.722;2022-08-11T04:18:24;16.80;58.90
4651;DHT22;2338;49.602;8.722;2022-08-11T04:21:46;16.90;59.10
4651;DHT22;2338;49.602;8.722;2022-08-11T04:24:53;17.00;58.90
4651;DHT22;2338;49.602;8.722;2022-08-11T04:31:23;17.20;58.50
4651;DHT22;2338;49.602;8.722;2022-08-11T04:34:36;17.10;58.00
4651;DHT22;2338;49.602;8.722;2022-08-11T04:37:42;17.00;59.30
4651;DHT22;2338;49.602;8.722;2022-08-11T04:46:43;17.00;60.00
4651;DHT22;2338;49.602;8.722;2022-08-11T04:49:54;17.00;60.10
4651;DHT22;2338;49.602;8.722;2022-08-11T04:53:14;17.20;61.00
4651;DHT22;2338;49.602;8.722;2022-08-11T04:56:23;17.20;60.70
4651;DHT22;2338;49.602;8.722;2022-08-11T04:59:58;17.20;61.10
4651;DHT22;2338;49.602;8.722;2022-08-11T05:03:34;17.30;62.10
4651;DHT22;2338;49.602;8.722;2022-08-11T05:07:06;17.40;60.90
4651;DHT22;2338;49.602;8.722;2022-08-11T05:10:10;17.40;59.80
4651;DHT22;2338;49.602;8.722;2022-08-11T05:13:00;17.40;61.10
4651;DHT22;2338;49.602;8.722;2022-08-11T05:16:09;17.50;61.80
4651;DHT22;2338;49.602;8.722;2022-08-11T05:19:16;17.60;62.00
4651;DHT22;2338;49.602;8.722;2022-08-11T05:22:22;17.60;62.10
4651;DHT22;2338;49.602;8.722;2022-08-11T05:25:31;17.70;62.10
4651;DHT22;2338;49.602;8.722;2022-08-11T05:28:40;17.70;62.80
4651;DHT22;2338;49.602;8.722;2022-08-11T05:31:49;17.90;61.80
4651;DHT22;2338;49.602;8.722;2022-08-11T05:34:54;18.10;61.40
4651;DHT22;2338;49.602;8.722;2022-08-11T05:37:43;18.20;61.10
4651;DHT22;2338;49.602;8.722;2022-08-11T05:40:50;18.20;61.90
4651;DHT22;2338;49.602;8.722;2022-08-11T05:43:57;18.40;62.20
4651;DHT22;2338;49.602;8.722;2022-08-11T05:47:01;18.50;61.30
4651;DHT22;2338;49.602;8.722;2022-08-11T05:50:08;18.60;62.40
4651;DHT22;2338;49.602;8.722;2022-08-11T05:53:12;18.80;61.80
4651;DHT22;2338;49.602;8.722;2022-08-11T05:56:18;18.90;61.50
4651;DHT22;2338;49.602;8.722;2022-08-11T05:59:11;19.10;61.10
4651;DHT22;2338;49.602;8.722;2022-08-11T06:02:00;19.40;60.50
4651;DHT22;2338;49.602;8.722;2022-08-11T06:04:53;19.60;60.00
4651;DHT22;2338;49.602;8.722;2022-08-11T06:07:40;19.70;60.30
4651;DHT22;2338;49.602;8.722;2022-08-11T06:10:29;19.80;59.20
4651;DHT22;2338;49.602;8.722;2022-08-11T06:13:19;20.00;57.00
4651;DHT22;2338;49.602;8.722;2022-08-11T06:16:07;20.20;58.00
4651;DHT22;2338;49.602;8.722;2022-08-11T06:18:53;20.30;58.90
4651;DHT22;2338;49.602;8.722;2022-08-11T06:21:44;20.40;58.40
4651;DHT22;2338;49.602;8.722;2022-08-11T06:24:30;20.60;58.50
4651;DHT22;2338;49.602;8.722;2022-08-11T06:27:18;20.80;57.40
4651;DHT22;2338;49.602;8.722;2022-08-11T06:30:07;21.00;54.40
4651;DHT22;2338;49.602;8.722;2022-08-11T06:32:56;21.20;51.30
4651;DHT22;2338;49.602;8.722;2022-08-11T06:35:47;21.40;45.70
4651;DHT22;2338;49.602;8.722;2022-08-11T06:38:52;21.60;42.10
4651;DHT22;2338;49.602;8.722;2022-08-11T06:41:47;21.80;40.00
4651;DHT22;2338;49.602;8.722;2022-08-11T06:44:40;22.00;36.40
4651;DHT22;2338;49.602;8.722;2022-08-11T06:47:28;22.10;37.50
4651;DHT22;2338;49.602;8.722;2022-08-11T06:50:18;22.30;36.60
4651;DHT22;2338;49.602;8.722;2022-08-11T06:53:22;22.40;35.30
4651;DHT22;2338;49.602;8.722;2022-08-11T06:56:08;22.60;34.00
4651;DHT22;2338;49.602;8.722;2022-08-11T06:59:14;22.70;34.70
4651;DHT22;2338;49.602;8.722;2022-08-11T07:02:23;22.90;33.50
4651;DHT22;2338;49.602;8.722;2022-08-11T07:05:19;23.00;32.00
4651;DHT22;2338;49.602;8.722;2022-08-11T07:08:41;23.10;30.90
4651;DHT22;2338;49.602;8.722;2022-08-11T07:12:13;23.20;32.50
4651;DHT22;2338;49.602;8.722;2022-08-11T07:15:25;23.30;32.60
4651;DHT22;2338;49.602;8.722;2022-08-11T07:18:29;23.50;33.40
4651;DHT22;2338;49.602;8.722;2022-08-11T07:21:35;23.60;32.00
4651;DHT22;2338;49.602;8.722;2022-08-11T07:24:45;23.70;31.60
4651;DHT22;2338;49.602;8.722;2022-08-11T07:27:57;23.80;31.10
4651;DHT22;2338;49.602;8.722;2022-08-11T07:31:05;23.80;30.00
4651;DHT22;2338;49.602;8.722;2022-08-11T07:33:56;23.90;29.60
4651;DHT22;2338;49.602;8.722;2022-08-11T07:36:48;24.00;30.20
4651;DHT22;2338;49.602;8.722;2022-08-11T07:39:36;24.10;30.10
4651;DHT22;2338;49.602;8.722;2022-08-11T07:42:27;24.20;29.90
4651;DHT22;2338;49.602;8.722;2022-08-11T07:45:14;24.20;29.90
4651;DHT22;2338;49.602;8.722;2022-08-11T07:48:19;24.30;29.90
4651;DHT22;2338;49.602;8.722;2022-08-11T07:51:22;24.40;28.80
4651;DHT22;2338;49.602;8.722;2022-08-11T07:54:28;24.50;29.60
4651;DHT22;2338;49.602;8.722;2022-08-11T07:57:14;24.60;29.90
4651;DHT22;2338;49.602;8.722;2022-08-11T08:00:18;24.60;29.10
4651;DHT22;2338;49.602;8.722;2022-08-11T08:03:22;24.80;28.80
4651;DHT22;2338;49.602;8.722;2022-08-11T08:06:27;24.80;28.40
4651;DHT22;2338;49.602;8.722;2022-08-11T08:09:33;24.90;28.80
4651;DHT22;2338;49.602;8.722;2022-08-11T08:12:39;25.00;28.20
4651;DHT22;2338;49.602;8.722;2022-08-11T08:15:43;25.10;29.00
4651;DHT22;2338;49.602;8.722;2022-08-11T08:18:46;25.10;28.10
4651;DHT22;2338;49.602;8.722;2022-08-11T08:21:32;25.20;29.00
4651;DHT22;2338;49.602;8.722;2022-08-11T08:24:18;25.30;27.60
4651;DHT22;2338;49.602;8.722;2022-08-11T08:27:07;25.40;26.50
4651;DHT22;2338;49.602;8.722;2022-08-11T08:29:56;25.40;27.10
4651;DHT22;2338;49.602;8.722;2022-08-11T08:33:00;25.40;27.30
4651;DHT22;2338;49.602;8.722;2022-08-11T08:35:48;25.50;26.90
4651;DHT22;2338;49.602;8.722;2022-08-11T08:38:35;25.60;27.50
4651;DHT22;2338;49.602;8.722;2022-08-11T08:41:24;25.60;27.40
4651;DHT22;2338;49.602;8.722;2022-08-11T08:44:14;25.70;26.90
4651;DHT22;2338;49.602;8.722;2022-08-11T08:47:03;25.80;26.70
4651;DHT22;2338;49.602;8.722;2022-08-11T08:49:57;25.90;26.50
4651;DHT22;2338;49.602;8.722;2022-08-11T08:52:48;25.90;26.10
4651;DHT22;2338;49.602;8.722;2022-08-11T08:55:34;26.00;25.80
4651;DHT22;2338;49.602;8.722;2022-08-11T08:58:21;26.10;25.80
4651;DHT22;2338;49.602;8.722;2022-08-11T09:01:10;26.30;25.80
4651;DHT22;2338;49.602;8.722;2022-08-11T09:03:57;26.30;25.50
4651;DHT22;2338;49.602;8.722;2022-08-11T09:06:43;26.40;25.30
4651;DHT22;2338;49.602;8.722;2022-08-11T09:09:29;26.50;25.40
4651;DHT22;2338;49.602;8.722;2022-08-11T09:12:17;26.60;24.50
4651;DHT22;2338;49.602;8.722;2022-08-11T09:15:04;26.70;23.10
4651;DHT22;2338;49.602;8.722;2022-08-11T09:17:56;26.70;24.60
4651;DHT22;2338;49.602;8.722;2022-08-11T09:20:46;26.70;23.60
4651;DHT22;2338;49.602;8.722;2022-08-11T09:23:32;26.80;22.50
4651;DHT22;2338;49.602;8.722;2022-08-11T09:26:36;26.80;22.40
4651;DHT22;2338;49.602;8.722;2022-08-11T09:29:41;26.80;23.00
4651;DHT22;2338;49.602;8.722;2022-08-11T09:32:27;26.80;20.80
4651;DHT22;2338;49.602;8.722;2022-08-11T09:35:16;26.90;22.20
4651;DHT22;2338;49.602;8.722;2022-08-11T09:38:04;27.00;21.80
4651;DHT22;2338;49.602;8.722;2022-08-11T09:41:09;27.20;21.80
4651;DHT22;2338;49.602;8.722;2022-08-11T09:43:55;27.30;21.70
4651;DHT22;2338;49.602;8.722;2022-08-11T09:46:59;27.40;21.00
4651;DHT22;2338;49.602;8.722;2022-08-11T09:49:46;27.40;21.20
4651;DHT22;2338;49.602;8.722;2022-08-11T09:52:38;27.50;20.60
4651;DHT22;2338;49.602;8.722;2022-08-11T09:55:24;27.70;20.70
4651;DHT22;2338;49.602;8.722;2022-08-11T09:58:10;27.80;19.00
4651;DHT22;2338;49.602;8.722;2022-08-11T10:01:00;27.80;19.30
4651;DHT22;2338;49.602;8.722;2022-08-11T10:03:47;27.90;18.70
4651;DHT22;2338;49.602;8.722;2022-08-11T10:06:35;28.00;18.60
4651;DHT22;2338;49.602;8.722;2022-08-11T10:09:46;28.00;17.90
4651;DHT22;2338;49.602;8.722;2022-08-11T10:12:35;28.10;18.40
4651;DHT22;2338;49.602;8.722;2022-08-11T10:15:21;28.10;18.20
4651;DHT22;2338;49.602;8.722;2022-08-11T10:18:23;28.10;18.10
4651;DHT22;2338;49.602;8.722;2022-08-11T10:21:30;28.10;17.80
4651;DHT22;2338;49.602;8.722;2022-08-11T10:24:19;28.10;18.80
4651;DHT22;2338;49.602;8.722;2022-08-11T10:27:24;28.20;17.70
4651;DHT22;2338;49.602;8.722;2022-08-11T10:30:11;28.30;18.60
4651;DHT22;2338;49.602;8.722;2022-08-11T10:33:16;28.40;17.90
4651;DHT22;2338;49.602;8.722;2022-08-11T10:36:20;28.40;17.80
4651;DHT22;2338;49.602;8.722;2022-08-11T10:39:07;28.50;18.30
4651;DHT22;2338;49.602;8.722;2022-08-11T10:41:53;28.60;18.60
4651;DHT22;2338;49.602;8.722;2022-08-11T10:45:00;28.70;17.30
4651;DHT22;2338;49.602;8.722;2022-08-11T10:47:48;28.80;18.10
4651;DHT22;2338;49.602;8.722;2022-08-11T10:50:33;28.80;16.50
4651;DHT22;2338;49.602;8.722;2022-08-11T10:53:40;28.80;17.40
4651;DHT22;2338;49.602;8.722;2022-08-11T10:56:44;28.80;17.10
4651;DHT22;2338;49.602;8.722;2022-08-11T10:59:47;28.80;17.40
4651;DHT22;2338;49.602;8.722;2022-08-11T11:02:35;28.90;17.10
4651;DHT22;2338;49.602;8.722;2022-08-11T11:05:23;28.90;18.30
4651;DHT22;2338;49.602;8.722;2022-08-11T11:08:12;29.10;17.30
4651;DHT22;2338;49.602;8.722;2022-08-11T11:11:13;29.20;17.70
4651;DHT22;2338;49.602;8.722;2022-08-11T11:14:00;29.30;16.60
4651;DHT22;2338;49.602;8.722;2022-08-11T11:17:05;29.50;16.60
4651;DHT22;2338;49.602;8.722;2022-08-11T11:20:16;29.50;15.40
4651;DHT22;2338;49.602;8.722;2022-08-11T11:23:06;29.60;16.10
4651;DHT22;2338;49.602;8.722;2022-08-11T11:26:11;29.70;16.10
4651;DHT22;2338;49.602;8.722;2022-08-11T11:32:39;29.70;14.90
4651;DHT22;2338;49.602;8.722;2022-08-11T11:35:36;29.70;16.10
4651;DHT22;2338;49.602;8.722;2022-08-11T11:38:25;29.70;15.90
4651;DHT22;2338;49.602;8.722;2022-08-11T11:41:12;29.80;15.20
4651;DHT22;2338;49.602;8.722;2022-08-11T11:44:11;29.90;16.10
4651;DHT22;2338;49.602;8.722;2022-08-11T11:46:58;30.00;15.90
4651;DHT22;2338;49.602;8.722;2022-08-11T11:49:45;30.10;14.60
4651;DHT22;2338;49.602;8.722;2022-08-11T11:52:34;30.20;14.30
4651;DHT22;2338;49.602;8.722;2022-08-11T11:55:22;30.20;15.80
4651;DHT22;2338;49.602;8.722;2022-08-11T11:58:08;30.30;15.40
4651;DHT22;2338;49.602;8.722;2022-08-11T12:01:12;30.40;14.80
4651;DHT22;2338;49.602;8.722;2022-08-11T12:04:04;30.50;15.00
4651;DHT22;2338;49.602;8.722;2022-08-11T12:06:50;30.60;14.70
4651;DHT22;2338;49.602;8.722;2022-08-11T12:09:58;30.70;14.70
4651;DHT22;2338;49.602;8.722;2022-08-11T12:12:44;30.80;14.90
4651;DHT22;2338;49.602;8.722;2022-08-11T12:15:49;30.80;13.90
4651;DHT22;2338;49.602;8.722;2022-08-11T12:18:38;30.80;14.40
4651;DHT22;2338;49.602;8.722;2022-08-11T12:21:25;30.90;13.40
4651;DHT22;2338;49.602;8.722;2022-08-11T12:24:11;30.90;13.30
4651;DHT22;2338;49.602;8.722;2022-08-11T12:27:16;30.90;12.70
4651;DHT22;2338;49.602;8.722;2022-08-11T12:30:06;30.80;12.20
4651;DHT22;2338;49.602;8.722;2022-08-11T12:32:53;30.80;14.00
4651;DHT22;2338;49.602;8.722;2022-08-11T12:35:39;31.00;13.80
4651;DHT22;2338;49.602;8.722;2022-08-11T12:38:26;31.10;13.10
4651;DHT22;2338;49.602;8.722;2022-08-11T12:41:12;31.20;11.60
4651;DHT22;2338;49.602;8.722;2022-08-11T12:44:17;31.30;11.70
4651;DHT22;2338;49.602;8.722;2022-08-11T12:47:21;31.30;12.40
4651;DHT22;2338;49.602;8.722;2022-08-11T12:50:08;31.50;12.20
4651;DHT22;2338;49.602;8.722;2022-08-11T12:53:11;31.70;11.60
4651;DHT22;2338;49.602;8.722;2022-08-11T12:56:02;31.80;11.30
4651;DHT22;2338;49.602;8.722;2022-08-11T12:59:07;31.80;10.50
4651;DHT22;2338;49.602;8.722;2022-08-11T13:02:16;31.80;11.30
4651;DHT22;2338;49.602;8.722;2022-08-11T13:05:21;31.90;10.70
4651;DHT22;2338;49.602;8.722;2022-08-11T13:08:08;31.90;11.30
4651;DHT22;2338;49.602;8.722;2022-08-11T13:10:55;32.00;11.10
4651;DHT22;2338;49.602;8.722;2022-08-11T13:14:00;32.10;11.40
4651;DHT22;2338;49.602;8.722;2022-08-11T13:16:46;32.10;10.60
4651;DHT22;2338;49.602;8.722;2022-08-11T13:19:52;32.30;11.50
4651;DHT22;2338;49.602;8.722;2022-08-11T13:22:40;32.40;9.80
4651;DHT22;2338;49.602;8.722;2022-08-11T13:25:30;32.50;10.30
4651;DHT22;2338;49.602;8.722;2022-08-11T13:28:17;32.60;9.40
4651;DHT22;2338;49.602;8.722;2022-08-11T13:31:05;32.70;11.80
4651;DHT22;2338;49.602;8.722;2022-08-11T13:33:58;32.90;9.70
4651;DHT22;2338;49.602;8.722;2022-08-11T13:36:48;33.00;9.70
4651;DHT22;2338;49.602;8.722;2022-08-11T13:39:36;33.00;9.50
4651;DHT22;2338;49.602;8.722;2022-08-11T13:42:22;33.00;10.40
4651;DHT22;2338;49.602;8.722;2022-08-11T13:45:09;33.20;9.90
4651;DHT22;2338;49.602;8.722;2022-08-11T13:47:56;33.30;9.40
4651;DHT22;2338;49.602;8.722;2022-08-11T13:50:43;33.40;7.90
4651;DHT22;2338;49.602;8.722;2022-08-11T13:53:49;33.10;9.10
4651;DHT22;2338;49.602;8.722;2022-08-11T13:56:37;33.10;9.90
4651;DHT22;2338;49.602;8.722;2022-08-11T13:59:24;33.30;8.80
4651;DHT22;2338;49.602;8.722;2022-08-11T14:02:13;33.40;9.10
4651;DHT22;2338;49.602;8.722;2022-08-11T14:05:04;33.40;8.90
4651;DHT22;2338;49.602;8.722;2022-08-11T14:07:52;33.30;9.40
4651;DHT22;2338;49.602;8.722;2022-08-11T14:10:41;33.30;8.90
4651;DHT22;2338;49.602;8.722;2022-08-11T14:13:28;33.30;9.00
4651;DHT22;2338;49.602;8.722;2022-08-11T14:16:27;33.30;8.90
4651;DHT22;2338;49.602;8.722;2022-08-11T14:19:14;33.40;9.10
4651;DHT22;2338;49.602;8.722;2022-08-11T14:22:02;33.50;8.90
4651;DHT22;2338;49.602;8.722;2022-08-11T14:24:51;33.50;8.90
4651;DHT22;2338;49.602;8.722;2022-08-11T14:27:38;33.60;7.70
4651;DHT22;2338;49.602;8.722;2022-08-11T14:30:26;33.60;8.10
4651;DHT22;2338;49.602;8.722;2022-08-11T14:33:32;33.60;8.10
4651;DHT22;2338;49.602;8.722;2022-08-11T14:36:19;33.60;9.30
4651;DHT22;2338;49.602;8.722;2022-08-11T14:39:09;33.50;9.00
4651;DHT22;2338;49.602;8.722;2022-08-11T14:41:58;33.60;8.00
4651;DHT22;2338;49.602;8.722;2022-08-11T14:45:06;33.50;7.60
4651;DHT22;2338;49.602;8.722;2022-08-11T14:48:21;33.40;9.00
4651;DHT22;2338;49.602;8.722;2022-08-11T14:51:07;33.30;9.30
4651;DHT22;2338;49.602;8.722;2022-08-11T14:53:52;33.20;9.50
4651;DHT22;2338;49.602;8.722;2022-08-11T14:56:59;33.20;8.90
4651;DHT22;2338;49.602;8.722;2022-08-11T14:59:46;33.10;8.70
4651;DHT22;2338;49.602;8.722;2022-08-11T15:02:36;33.20;8.40
4651;DHT22;2338;49.602;8.722;2022-08-11T15:05:46;33.10;7.90
4651;DHT22;2338;49.602;8.722;2022-08-11T15:08:34;33.00;9.50
4651;DHT22;2338;49.602;8.722;2022-08-11T15:11:38;33.10;8.10
4651;DHT22;2338;49.602;8.722;2022-08-11T15:14:42;33.10;8.90
4651;DHT22;2338;49.602;8.722;2022-08-11T15:17:49;33.00;9.30
4651;DHT22;2338;49.602;8.722;2022-08-11T15:20:36;33.10;9.20
4651;DHT22;2338;49.602;8.722;2022-08-11T15:23:40;33.10;8.20
4651;DHT22;2338;49.602;8.722;2022-08-11T15:26:43;33.00;7.90
4651;DHT22;2338;49.602;8.722;2022-08-11T15:29:50;32.90;8.50
4651;DHT22;2338;49.602;8.722;2022-08-11T15:32:55;32.90;8.50
4651;DHT22;2338;49.602;8.722;2022-08-11T15:36:09;32.90;8.60
4651;DHT22;2338;49.602;8.722;2022-08-11T15:39:17;32.80;7.90
4651;DHT22;2338;49.602;8.722;2022-08-11T15:42:08;32.90;8.40
4651;DHT22;2338;49.602;8.722;2022-08-11T15:45:16;32.90;7.90
4651;DHT22;2338;49.602;8.722;2022-08-11T15:48:42;32.80;8.70
4651;DHT22;2338;49.602;8.722;2022-08-11T15:51:33;32.70;9.30
4651;DHT22;2338;49.602;8.722;2022-08-11T15:54:23;32.70;8.60
4651;DHT22;2338;49.602;8.722;2022-08-11T15:57:09;32.60;8.30
4651;DHT22;2338;49.602;8.722;2022-08-11T16:00:17;32.40;8.40
4651;DHT22;2338;49.602;8.722;2022-08-11T16:03:23;32.40;8.10
4651;DHT22;2338;49.602;8.722;2022-08-11T16:06:30;32.40;9.00
4651;DHT22;2338;49.602;8.722;2022-08-11T16:09:21;32.40;8.90
4651;DHT22;2338;49.602;8.722;2022-08-11T16:12:10;32.30;8.50
4651;DHT22;2338;49.602;8.722;2022-08-11T16:15:01;32.30;9.10
4651;DHT22;2338;49.602;8.722;2022-08-11T16:18:06;32.30;8.50
4651;DHT22;2338;49.602;8.722;2022-08-11T16:20:53;32.30;9.10
4651;DHT22;2338;49.602;8.722;2022-08-11T16:23:43;32.30;8.60
4651;DHT22;2338;49.602;8.722;2022-08-11T16:26:31;32.10;8.10
4651;DHT22;2338;49.602;8.722;2022-08-11T16:29:20;32.00;8.80
4651;DHT22;2338;49.602;8.722;2022-08-11T16:32:10;31.90;9.10
4651;DHT22;2338;49.602;8.722;2022-08-11T16:35:06;31.70;8.40
4651;DHT22;2338;49.602;8.722;2022-08-11T16:38:11;31.50;9.40
4651;DHT22;2338;49.602;8.722;2022-08-11T16:41:17;31.50;9.80
4651;DHT22;2338;49.602;8.722;2022-08-11T16:44:24;31.40;10.20
4651;DHT22;2338;49.602;8.722;2022-08-11T16:47:29;31.40;9.30
4651;DHT22;2338;49.602;8.722;2022-08-11T16:50:17;31.40;9.30
4651;DHT22;2338;49.602;8.722;2022-08-11T16:53:04;31.30;9.60
4651;DHT22;2338;49.602;8.722;2022-08-11T16:55:50;31.20;10.20
4651;DHT22;2338;49.602;8.722;2022-08-11T16:58:40;31.10;9.50
4651;DHT22;2338;49.602;8.722;2022-08-11T17:01:47;31.00;10.20
4651;DHT22;2338;49.602;8.722;2022-08-11T17:04:40;30.90;9.70
4651;DHT22;2338;49.602;8.722;2022-08-11T17:07:45;30.80;9.70
4651;DHT22;2338;49.602;8.722;2022-08-11T17:10:52;30.70;9.80
4651;DHT22;2338;49.602;8.722;2022-08-11T17:14:06;30.60;10.50
4651;DHT22;2338;49.602;8.722;2022-08-11T17:16:52;30.40;10.40
4651;DHT22;2338;49.602;8.722;2022-08-11T17:19:43;30.40;10.40
4651;DHT22;2338;49.602;8.722;2022-08-11T17:22:31;30.30;10.40
4651;DHT22;2338;49.602;8.722;2022-08-11T17:25:34;30.20;10.40
4651;DHT22;2338;49.602;8.722;2022-08-11T17:28:21;30.20;10.30
4651;DHT22;2338;49.602;8.722;2022-08-11T17:31:10;30.10;10.70
4651;DHT22;2338;49.602;8.722;2022-08-11T17:34:12;30.00;10.60
4651;DHT22;2338;49.602;8.722;2022-08-11T17:37:16;29.90;11.20
4651;DHT22;2338;49.602;8.722;2022-08-11T17:40:06;29.80;12.10
4651;DHT22;2338;49.602;8.722;2022-08-11T17:42:54;29.70;13.40
4651;DHT22;2338;49.602;8.722;2022-08-11T17:45:58;29.60;13.80
4651;DHT22;2338;49.602;8.722;2022-08-11T17:49:05;29.40;13.70
4651;DHT22;2338;49.602;8.722;2022-08-11T17:51:52;29.30;14.50
4651;DHT22;2338;49.602;8.722;2022-08-11T17:54:56;29.10;14.70
4651;DHT22;2338;49.602;8.722;2022-08-11T17:58:01;29.00;13.80
4651;DHT22;2338;49.602;8.722;2022-08-11T18:01:06;28.80;14.50
4651;DHT22;2338;49.602;8.722;2022-08-11T18:03:54;28.70;16.20
4651;DHT22;2338;49.602;8.722;2022-08-11T18:06:42;28.50;15.90
4651;DHT22;2338;49.602;8.722;2022-08-11T18:09:27;28.40;17.40
4651;DHT22;2338;49.602;8.722;2022-08-11T18:12:31;28.20;17.30
4651;DHT22;2338;49.602;8.722;2022-08-11T18:15:37;27.80;18.10
4651;DHT22;2338;49.602;8.722;2022-08-11T18:18:40;27.70;18.80
4651;DHT22;2338;49.602;8.722;2022-08-11T18:21:46;27.50;18.90
4651;DHT22;2338;49.602;8.722;2022-08-11T18:24:53;27.30;19.40
4651;DHT22;2338;49.602;8.722;2022-08-11T18:27:58;27.10;20.30
4651;DHT22;2338;49.602;8.722;2022-08-11T18:31:04;26.80;20.50
4651;DHT22;2338;49.602;8.722;2022-08-11T18:34:11;26.60;21.10
4651;DHT22;2338;49.602;8.722;2022-08-11T18:37:24;26.50;21.20
4651;DHT22;2338;49.602;8.722;2022-08-11T18:40:29;26.30;20.20
4651;DHT22;2338;49.602;8.722;2022-08-11T18:43:36;26.30;19.80
4651;DHT22;2338;49.602;8.722;2022-08-11T18:46:43;26.00;21.30
4651;DHT22;2338;49.602;8.722;2022-08-11T18:49:49;25.70;21.80
4651;DHT22;2338;49.602;8.722;2022-08-11T18:52:56;25.60;23.40
4651;DHT22;2338;49.602;8.722;2022-08-11T18:56:01;25.40;23.50
4651;DHT22;2338;49.602;8.722;2022-08-11T18:59:07;25.20;24.10
4651;DHT22;2338;49.602;8.722;2022-08-11T19:02:12;25.10;24.40
4651;DHT22;2338;49.602;8.722;2022-08-11T19:05:17;25.00;23.80
4651;DHT22;2338;49.602;8.722;2022-08-11T19:08:27;24.90;24.00
4651;DHT22;2338;49.602;8.722;2022-08-11T19:11:32;24.70;23.30
4651;DHT22;2338;49.602;8.722;2022-08-11T19:14:37;24.30;22.90
4651;DHT22;2338;49.602;8.722;2022-08-11T19:17:42;24.20;25.10
4651;DHT22;2338;49.602;8.722;2022-08-11T19:20:46;24.10;25.30
4651;DHT22;2338;49.602;8.722;2022-08-11T19:23:56;24.10;24.20
4651;DHT22;2338;49.602;8.722;2022-08-11T19:27:02;24.00;25.10
4651;DHT22;2338;49.602;8.722;2022-08-11T19:30:07;23.90;25.30
4651;DHT22;2338;49.602;8.722;2022-08-11T19:33:10;23.80;24.70
4651;DHT22;2338;49.602;8.722;2022-08-11T19:36:14;23.70;25.50
4651;DHT22;2338;49.602;8.722;2022-08-11T19:39:21;23.60;25.50
4651;DHT22;2338;49.602;8.722;2022-08-11T19:42:25;23.50;25.50
4651;DHT22;2338;49.602;8.722;2022-08-11T19:45:30;23.40;25.90
4651;DHT22;2338;49.602;8.722;2022-08-11T19:48:34;23.40;26.10
4651;DHT22;2338;49.602;8.722;2022-08-11T19:51:38;23.30;26.10
4651;DHT22;2338;49.602;8.722;2022-08-11T19:54:43;23.20;25.80
4651;DHT22;2338;49.602;8.722;2022-08-11T19:57:48;23.10;26.40
4651;DHT22;2338;49.602;8.722;2022-08-11T20:00:52;22.90;26.80
4651;DHT22;2338;49.602;8.722;2022-08-11T20:03:55;22.90;26.40
4651;DHT22;2338;49.602;8.722;2022-08-11T20:06:59;22.80;27.20
4651;DHT22;2338;49.602;8.722;2022-08-11T20:10:06;22.70;27.40
4651;DHT22;2338;49.602;8.722;2022-08-11T20:13:11;22.60;27.60
4651;DHT22;2338;49.602;8.722;2022-08-11T20:16:18;22.60;28.00